sensor_id;sensor_type;location;lat;lon;timestamp;pressure;altitude;pressure_sealevel;temperature;humidity
49451;BME280;35336;48.400;10.886;2023-01-15T00:00:14;95354.91;;;8.66;63.25
49451;BME280;35336;48.400;10.886;2023-01-15T00:00:29;95346.13;;;8.65;62.82
49451;BME280;35336;48.400;10.886;2023-01-15T00:00:45;95347.31;;;8.69;62.71
49451;BME280;35336;48.400;10.886;2023-01-15T00:01:01;95346.13;;;8.65;62.83
49451;BME280;35336;48.400;10.886;2023-01-15T00:01:28;95356.94;;;8.70;62.77
49451;BME280;35336;48.400;10.886;2023-01-15T00:01:44;95352.25;;;8.66;62.65
49451;BME280;35336;48.400;10.886;2023-01-15T00:02:00;95342.84;;;8.63;62.67
49451;BME280;35336;48.400;10.886;2023-01-15T00:02:15;95343.25;;;8.67;61.99
49451;BME280;35336;48.400;10.886;2023-01-15T00:02:30;95346.91;;;8.72;61.90
49451;BME280;35336;48.400;10.886;2023-01-15T00:02:46;95342.84;;;8.70;61.84
49451;BME280;35336;48.400;10.886;2023-01-15T00:03:01;95353.03;;;8.80;61.95
49451;BME280;35336;48.400;10.886;2023-01-15T00:03:17;95352.19;;;8.79;62.00
49451;BME280;35336;48.400;10.886;2023-01-15T00:03:32;95350.56;;;8.78;61.88
49451;BME280;35336;48.400;10.886;2023-01-15T00:03:48;95332.81;;;8.72;61.31
49451;BME280;35336;48.400;10.886;2023-01-15T00:04:06;95349.13;;;8.82;61.19
49451;BME280;35336;48.400;10.886;2023-01-15T00:04:21;95350.38;;;8.80;61.71
49451;BME280;35336;48.400;10.886;2023-01-15T00:04:36;95315.25;;;8.57;61.62
49451;BME280;35336;48.400;10.886;2023-01-15T00:04:52;95339.53;;;8.81;61.72
49451;BME280;35336;48.400;10.886;2023-01-15T00:05:07;95339.91;;;8.85;61.53
49451;BME280;35336;48.400;10.886;2023-01-15T00:05:22;95326.25;;;8.74;61.69
49451;BME280;35336;48.400;10.886;2023-01-15T00:05:38;95323.59;;;8.74;62.10
49451;BME280;35336;48.400;10.886;2023-01-15T00:05:53;95328.09;;;8.74;61.68
49451;BME280;35336;48.400;10.886;2023-01-15T00:06:09;95330.94;;;8.79;61.71
49451;BME280;35336;48.400;10.886;2023-01-15T00:06:26;95328.50;;;8.78;61.62
49451;BME280;35336;48.400;10.886;2023-01-15T00:06:41;95325.84;;;8.78;61.71
49451;BME280;35336;48.400;10.886;2023-01-15T00:06:57;95322.78;;;8.74;61.67
49451;BME280;35336;48.400;10.886;2023-01-15T00:07:12;95319.72;;;8.70;61.69
49451;BME280;35336;48.400;10.886;2023-01-15T00:07:28;95317.28;;;8.69;60.95
49451;BME280;35336;48.400;10.886;2023-01-15T00:07:44;95325.84;;;8.78;61.35
49451;BME280;35336;48.400;10.886;2023-01-15T00:07:59;95331.97;;;8.78;61.46
49451;BME280;35336;48.400;10.886;2023-01-15T00:08:14;95328.09;;;8.74;60.98
49451;BME280;35336;48.400;10.886;2023-01-15T00:08:30;95329.28;;;8.78;60.50
49451;BME280;35336;48.400;10.886;2023-01-15T00:08:45;95310.53;;;8.73;60.71
49451;BME280;35336;48.400;10.886;2023-01-15T00:09:01;95314.03;;;8.67;61.07
49451;BME280;35336;48.400;10.886;2023-01-15T00:09:16;95320.97;;;8.68;61.26
49451;BME280;35336;48.400;10.886;2023-01-15T00:09:31;95328.09;;;8.74;61.28
49451;BME280;35336;48.400;10.886;2023-01-15T00:09:47;95321.59;;;8.70;61.69
49451;BME280;35336;48.400;10.886;2023-01-15T00:10:04;95324.41;;;8.75;60.99
49451;BME280;35336;48.400;10.886;2023-01-15T00:10:19;95328.09;;;8.74;61.30
49451;BME280;35336;48.400;10.886;2023-01-15T00:10:35;95328.31;;;8.72;61.23
49451;BME280;35336;48.400;10.886;2023-01-15T00:10:50;95330.34;;;8.70;61.00
49451;BME280;35336;48.400;10.886;2023-01-15T00:11:06;95321.19;;;8.66;61.21
49451;BME280;35336;48.400;10.886;2023-01-15T00:11:22;95319.50;;;8.72;60.68
49451;BME280;35336;48.400;10.886;2023-01-15T00:11:37;95308.88;;;8.72;61.01
49451;BME280;35336;48.400;10.886;2023-01-15T00:11:52;95310.53;;;8.73;60.62
49451;BME280;35336;48.400;10.886;2023-01-15T00:12:08;95313.41;;;8.71;60.22
49451;BME280;35336;48.400;10.886;2023-01-15T00:12:23;95323.97;;;8.78;60.01
49451;BME280;35336;48.400;10.886;2023-01-15T00:12:39;95312.78;;;8.69;60.11
49451;BME280;35336;48.400;10.886;2023-01-15T00:12:54;95316.22;;;8.77;60.09
49451;BME280;35336;48.400;10.886;2023-01-15T00:13:10;95300.50;;;8.68;59.89
49451;BME280;35336;48.400;10.886;2023-01-15T00:13:25;95316.00;;;8.78;60.22
49451;BME280;35336;48.400;10.886;2023-01-15T00:13:41;95314.59;;;8.76;60.05
49451;BME280;35336;48.400;10.886;2023-01-15T00:13:56;95313.97;;;8.80;59.89
49451;BME280;35336;48.400;10.886;2023-01-15T00:14:12;95318.25;;;8.81;59.99
49451;BME280;35336;48.400;10.886;2023-01-15T00:14:27;95302.72;;;8.78;59.76
49451;BME280;35336;48.400;10.886;2023-01-15T00:14:42;95299.47;;;8.76;59.87
49451;BME280;35336;48.400;10.886;2023-01-15T00:14:58;95316.22;;;8.83;60.04
49451;BME280;35336;48.400;10.886;2023-01-15T00:15:13;95323.34;;;8.83;59.90
49451;BME280;35336;48.400;10.886;2023-01-15T00:15:30;95298.47;;;8.70;60.35
49451;BME280;35336;48.400;10.886;2023-01-15T00:15:45;95305.38;;;8.78;60.11
49451;BME280;35336;48.400;10.886;2023-01-15T00:16:24;95319.47;;;8.85;60.47
49451;BME280;35336;48.400;10.886;2023-01-15T00:16:40;95292.94;;;8.72;60.18
49451;BME280;35336;48.400;10.886;2023-01-15T00:16:55;95321.53;;;8.83;59.96
49451;BME280;35336;48.400;10.886;2023-01-15T00:17:10;95291.34;;;8.64;60.15
49451;BME280;35336;48.400;10.886;2023-01-15T00:17:26;95311.28;;;8.87;60.57
49451;BME280;35336;48.400;10.886;2023-01-15T00:17:41;95307.00;;;8.79;59.89
49451;BME280;35336;48.400;10.886;2023-01-15T00:17:56;95291.31;;;8.71;59.83
49451;BME280;35336;48.400;10.886;2023-01-15T00:18:12;95323.34;;;8.89;59.96
49451;BME280;35336;48.400;10.886;2023-01-15T00:18:27;95320.28;;;8.86;59.98
49451;BME280;35336;48.400;10.886;2023-01-15T00:18:43;95325.38;;;8.87;60.18
49451;BME280;35336;48.400;10.886;2023-01-15T00:19:03;95320.69;;;8.89;60.99
49451;BME280;35336;48.400;10.886;2023-01-15T00:19:18;95320.69;;;8.89;60.45
49451;BME280;35336;48.400;10.886;2023-01-15T00:19:34;95308.44;;;8.82;59.97
49451;BME280;35336;48.400;10.886;2023-01-15T00:19:49;95298.47;;;8.77;60.17
49451;BME280;35336;48.400;10.886;2023-01-15T00:20:05;95304.56;;;8.78;60.85
49451;BME280;35336;48.400;10.886;2023-01-15T00:20:20;95310.69;;;8.78;60.82
49451;BME280;35336;48.400;10.886;2023-01-15T00:20:35;95305.19;;;8.80;60.82
49451;BME280;35336;48.400;10.886;2023-01-15T00:20:57;95302.72;;;8.78;60.97
49451;BME280;35336;48.400;10.886;2023-01-15T00:21:13;95302.94;;;8.77;61.28
49451;BME280;35336;48.400;10.886;2023-01-15T00:21:29;95293.38;;;8.69;61.17
49451;BME280;35336;48.400;10.886;2023-01-15T00:21:44;95305.81;;;8.75;60.80
49451;BME280;35336;48.400;10.886;2023-01-15T00:21:59;95321.53;;;8.83;60.50
49451;BME280;35336;48.400;10.886;2023-01-15T00:22:15;95306.84;;;8.74;60.86
49451;BME280;35336;48.400;10.886;2023-01-15T00:22:30;95322.38;;;8.77;61.46
49451;BME280;35336;48.400;10.886;2023-01-15T00:22:45;95286.03;;;8.57;61.55
49451;BME280;35336;48.400;10.886;2023-01-15T00:23:01;95314.59;;;8.76;61.54
49451;BME280;35336;48.400;10.886;2023-01-15T00:23:16;95307.69;;;8.68;61.44
49451;BME280;35336;48.400;10.886;2023-01-15T00:23:32;95310.56;;;8.66;61.28
49451;BME280;35336;48.400;10.886;2023-01-15T00:23:48;95314.41;;;8.70;60.57
49451;BME280;35336;48.400;10.886;2023-01-15T00:24:04;95296.88;;;8.63;60.83
49451;BME280;35336;48.400;10.886;2023-01-15T00:24:19;95305.44;;;8.65;60.85
49451;BME280;35336;48.400;10.886;2023-01-15T00:24:34;95313.41;;;8.71;60.95
49451;BME280;35336;48.400;10.886;2023-01-15T00:24:50;95313.63;;;8.70;61.06
49451;BME280;35336;48.400;10.886;2023-01-15T00:25:06;95295.81;;;8.64;60.29
49451;BME280;35336;48.400;10.886;2023-01-15T00:25:21;95302.38;;;8.68;60.21
49451;BME280;35336;48.400;10.886;2023-01-15T00:25:36;95274.41;;;8.52;59.82
49451;BME280;35336;48.400;10.886;2023-01-15T00:25:55;95309.31;;;8.69;60.11
49451;BME280;35336;48.400;10.886;2023-01-15T00:26:18;95300.72;;;8.67;60.20
49451;BME280;35336;48.400;10.886;2023-01-15T00:26:34;95300.72;;;8.67;60.17
49451;BME280;35336;48.400;10.886;2023-01-15T00:26:49;95314.81;;;8.67;60.14
49451;BME280;35336;48.400;10.886;2023-01-15T00:27:05;95315.22;;;8.71;60.47
49451;BME280;35336;48.400;10.886;2023-01-15T00:27:20;95310.13;;;8.69;60.21
49451;BME280;35336;48.400;10.886;2023-01-15T00:27:36;95313.81;;;8.68;60.05
49451;BME280;35336;48.400;10.886;2023-01-15T00:27:51;95280.38;;;8.47;60.28
49451;BME280;35336;48.400;10.886;2023-01-15T00:28:06;95309.94;;;8.64;60.31
49451;BME280;35336;48.400;10.886;2023-01-15T00:28:22;95307.69;;;8.68;60.77
49451;BME280;35336;48.400;10.886;2023-01-15T00:28:37;95310.94;;;8.70;59.83
49451;BME280;35336;48.400;10.886;2023-01-15T00:28:52;95288.09;;;8.55;59.96
49451;BME280;35336;48.400;10.886;2023-01-15T00:29:08;95283.59;;;8.49;60.51
49451;BME280;35336;48.400;10.886;2023-01-15T00:29:24;95306.03;;;8.67;60.63
49451;BME280;35336;48.400;10.886;2023-01-15T00:29:39;95292.59;;;8.62;61.04
49451;BME280;35336;48.400;10.886;2023-01-15T00:29:55;95307.69;;;8.68;60.84
49451;BME280;35336;48.400;10.886;2023-01-15T00:30:12;95302.78;;;8.65;60.74
49451;BME280;35336;48.400;10.886;2023-01-15T00:30:28;95301.97;;;8.64;60.82
49451;BME280;35336;48.400;10.886;2023-01-15T00:30:43;95309.09;;;8.64;60.67
49451;BME280;35336;48.400;10.886;2023-01-15T00:30:59;95278.50;;;8.41;60.71
49451;BME280;35336;48.400;10.886;2023-01-15T00:31:14;95304.22;;;8.61;61.17
49451;BME280;35336;48.400;10.886;2023-01-15T00:31:31;95299.16;;;8.52;60.84
49451;BME280;35336;48.400;10.886;2023-01-15T00:32:07;95300.56;;;8.55;59.75
49451;BME280;35336;48.400;10.886;2023-01-15T00:32:23;95273.38;;;8.46;59.67
49451;BME280;35336;48.400;10.886;2023-01-15T00:32:39;95287.28;;;8.55;59.74
49451;BME280;35336;48.400;10.886;2023-01-15T00:32:56;95301.56;;;8.61;59.73
49451;BME280;35336;48.400;10.886;2023-01-15T00:33:11;95268.69;;;8.48;59.64
49451;BME280;35336;48.400;10.886;2023-01-15T00:33:27;95291.75;;;8.68;59.21
49451;BME280;35336;48.400;10.886;2023-01-15T00:33:42;95297.06;;;8.68;58.59
49451;BME280;35336;48.400;10.886;2023-01-15T00:33:57;95298.69;;;8.69;58.54
49451;BME280;35336;48.400;10.886;2023-01-15T00:34:13;95273.19;;;8.54;58.60
49451;BME280;35336;48.400;10.886;2023-01-15T00:34:28;95306.63;;;8.76;58.11
49451;BME280;35336;48.400;10.886;2023-01-15T00:34:43;95294.19;;;8.69;57.89
49451;BME280;35336;48.400;10.886;2023-01-15T00:34:59;95302.72;;;8.78;58.13
49451;BME280;35336;48.400;10.886;2023-01-15T00:35:20;95293.38;;;8.69;58.39
49451;BME280;35336;48.400;10.886;2023-01-15T00:35:36;95288.25;;;8.67;58.18
49451;BME280;35336;48.400;10.886;2023-01-15T00:35:51;95278.28;;;8.63;58.54
49451;BME280;35336;48.400;10.886;2023-01-15T00:36:06;95284.34;;;8.77;58.51
49451;BME280;35336;48.400;10.886;2023-01-15T00:36:22;95281.09;;;8.68;58.53
49451;BME280;35336;48.400;10.886;2023-01-15T00:36:37;95275.78;;;8.68;58.70
49451;BME280;35336;48.400;10.886;2023-01-15T00:36:53;95292.53;;;8.75;58.20
49451;BME280;35336;48.400;10.886;2023-01-15T00:37:08;95297.00;;;8.74;58.57
49451;BME280;35336;48.400;10.886;2023-01-15T00:37:24;95305.19;;;8.73;58.29
49451;BME280;35336;48.400;10.886;2023-01-15T00:37:39;95291.34;;;8.64;58.11
49451;BME280;35336;48.400;10.886;2023-01-15T00:37:54;95286.66;;;8.66;57.49
49451;BME280;35336;48.400;10.886;2023-01-15T00:38:10;95292.69;;;8.80;57.52
49451;BME280;35336;48.400;10.886;2023-01-15T00:38:25;95274.94;;;8.74;57.47
49451;BME280;35336;48.400;10.886;2023-01-15T00:38:40;95291.28;;;8.84;57.63
49451;BME280;35336;48.400;10.886;2023-01-15T00:38:56;95288.41;;;8.79;57.66
49451;BME280;35336;48.400;10.886;2023-01-15T00:39:11;95286.97;;;8.83;58.03
49451;BME280;35336;48.400;10.886;2023-01-15T00:39:27;95280.66;;;8.78;58.08
49451;BME280;35336;48.400;10.886;2023-01-15T00:39:42;95281.28;;;8.73;58.25
49451;BME280;35336;48.400;10.886;2023-01-15T00:39:57;95279.47;;;8.73;58.03
49451;BME280;35336;48.400;10.886;2023-01-15T00:40:15;95288.63;;;8.78;57.55
49451;BME280;35336;48.400;10.886;2023-01-15T00:40:30;95249.28;;;8.54;57.04
49451;BME280;35336;48.400;10.886;2023-01-15T00:40:46;95290.25;;;8.79;57.40
49451;BME280;35336;48.400;10.886;2023-01-15T00:41:01;95267.22;;;8.66;57.40
49451;BME280;35336;48.400;10.886;2023-01-15T00:41:17;95287.63;;;8.72;57.36
49451;BME280;35336;48.400;10.886;2023-01-15T00:41:32;95289.66;;;8.77;57.56
49451;BME280;35336;48.400;10.886;2023-01-15T00:41:48;95291.28;;;8.78;57.84
49451;BME280;35336;48.400;10.886;2023-01-15T00:42:04;95295.19;;;8.75;58.31
49451;BME280;35336;48.400;10.886;2023-01-15T00:42:19;95277.44;;;8.69;57.82
49451;BME280;35336;48.400;10.886;2023-01-15T00:42:35;95284.38;;;8.70;57.37
49451;BME280;35336;48.400;10.886;2023-01-15T00:42:50;95279.06;;;8.70;57.64
49451;BME280;35336;48.400;10.886;2023-01-15T00:43:05;95298.47;;;8.77;56.98
49451;BME280;35336;48.400;10.886;2023-01-15T00:43:21;95303.97;;;8.76;56.80
49451;BME280;35336;48.400;10.886;2023-01-15T00:43:36;95301.91;;;8.78;56.93
49451;BME280;35336;48.400;10.886;2023-01-15T00:43:51;95282.75;;;8.69;57.02
49451;BME280;35336;48.400;10.886;2023-01-15T00:44:07;95281.09;;;8.68;56.88
49451;BME280;35336;48.400;10.886;2023-01-15T00:44:22;95288.66;;;8.71;56.94
49451;BME280;35336;48.400;10.886;2023-01-15T00:44:38;95286.78;;;8.78;56.94
49451;BME280;35336;48.400;10.886;2023-01-15T00:44:53;95285.34;;;8.76;57.12
49451;BME280;35336;48.400;10.886;2023-01-15T00:45:09;95278.22;;;8.69;56.60
49451;BME280;35336;48.400;10.886;2023-01-15T00:45:25;95286.78;;;8.78;56.75
49451;BME280;35336;48.400;10.886;2023-01-15T00:45:40;95283.13;;;8.72;57.27
49451;BME280;35336;48.400;10.886;2023-01-15T00:45:55;95283.31;;;8.78;57.18
49451;BME280;35336;48.400;10.886;2023-01-15T00:46:11;95283.09;;;8.79;57.27
49451;BME280;35336;48.400;10.886;2023-01-15T00:46:26;95287.56;;;8.85;56.88
49451;BME280;35336;48.400;10.886;2023-01-15T00:46:42;95282.47;;;8.84;56.93
49451;BME280;35336;48.400;10.886;2023-01-15T00:46:57;95265.97;;;8.68;56.80
49451;BME280;35336;48.400;10.886;2023-01-15T00:47:12;95290.88;;;8.81;57.05
49451;BME280;35336;48.400;10.886;2023-01-15T00:47:28;95289.63;;;8.83;56.77
49451;BME280;35336;48.400;10.886;2023-01-15T00:47:44;95255.38;;;8.62;56.50
49451;BME280;35336;48.400;10.886;2023-01-15T00:47:59;95269.84;;;8.72;56.55
49451;BME280;35336;48.400;10.886;2023-01-15T00:48:14;95287.16;;;8.82;56.30
49451;BME280;35336;48.400;10.886;2023-01-15T00:48:30;95282.91;;;8.81;56.48
49451;BME280;35336;48.400;10.886;2023-01-15T00:48:46;95271.50;;;8.73;56.76
49451;BME280;35336;48.400;10.886;2023-01-15T00:49:01;95285.97;;;8.84;56.52
49451;BME280;35336;48.400;10.886;2023-01-15T00:49:17;95273.47;;;8.78;56.63
49451;BME280;35336;48.400;10.886;2023-01-15T00:49:32;95272.44;;;8.86;56.90
49451;BME280;35336;48.400;10.886;2023-01-15T00:49:48;95275.31;;;8.84;57.24
49451;BME280;35336;48.400;10.886;2023-01-15T00:50:04;95271.63;;;8.85;57.44
49451;BME280;35336;48.400;10.886;2023-01-15T00:50:20;95285.13;;;8.84;57.17
49451;BME280;35336;48.400;10.886;2023-01-15T00:50:35;95272.06;;;8.76;57.40
49451;BME280;35336;48.400;10.886;2023-01-15T00:50:51;95275.16;;;8.72;57.55
49451;BME280;35336;48.400;10.886;2023-01-15T00:51:06;95272.28;;;8.74;57.65
49451;BME280;35336;48.400;10.886;2023-01-15T00:51:21;95285.56;;;8.81;57.91
49451;BME280;35336;48.400;10.886;2023-01-15T00:51:37;95269.03;;;8.72;57.44
49451;BME280;35336;48.400;10.886;2023-01-15T00:51:52;95254.94;;;8.65;56.86
49451;BME280;35336;48.400;10.886;2023-01-15T00:52:08;95267.97;;;8.80;56.95
49451;BME280;35336;48.400;10.886;2023-01-15T00:52:23;95279.00;;;8.83;57.24
49451;BME280;35336;48.400;10.886;2023-01-15T00:52:39;95278.78;;;8.85;56.53
49451;BME280;35336;48.400;10.886;2023-01-15T00:52:55;95280.63;;;8.84;56.27
49451;BME280;35336;48.400;10.886;2023-01-15T00:53:10;95267.59;;;8.76;56.38
49451;BME280;35336;48.400;10.886;2023-01-15T00:53:25;95273.69;;;8.83;56.77
49451;BME280;35336;48.400;10.886;2023-01-15T00:53:41;95267.16;;;8.79;56.89
49451;BME280;35336;48.400;10.886;2023-01-15T00:53:56;95261.88;;;8.72;56.93
49451;BME280;35336;48.400;10.886;2023-01-15T00:54:12;95273.47;;;8.78;57.36
49451;BME280;35336;48.400;10.886;2023-01-15T00:54:27;95275.34;;;8.78;57.62
49451;BME280;35336;48.400;10.886;2023-01-15T00:54:42;95272.91;;;8.76;57.89
49451;BME280;35336;48.400;10.886;2023-01-15T00:54:58;95256.34;;;8.67;58.23
49451;BME280;35336;48.400;10.886;2023-01-15T00:55:13;95257.81;;;8.70;58.18
49451;BME280;35336;48.400;10.886;2023-01-15T00:55:28;95247.19;;;8.63;58.13
49451;BME280;35336;48.400;10.886;2023-01-15T00:55:44;95262.69;;;8.73;57.73
49451;BME280;35336;48.400;10.886;2023-01-15T00:55:59;95271.88;;;8.77;57.11
49451;BME280;35336;48.400;10.886;2023-01-15T00:56:15;95265.50;;;8.78;56.70
49451;BME280;35336;48.400;10.886;2023-01-15T00:56:31;95266.75;;;8.82;57.06
49451;BME280;35336;48.400;10.886;2023-01-15T00:56:47;95268.53;;;8.88;57.11
49451;BME280;35336;48.400;10.886;2023-01-15T00:57:02;95246.91;;;8.78;56.95
49451;BME280;35336;48.400;10.886;2023-01-15T00:57:17;95256.97;;;8.76;57.48
49451;BME280;35336;48.400;10.886;2023-01-15T00:57:33;95264.06;;;8.82;57.18
49451;BME280;35336;48.400;10.886;2023-01-15T00:57:48;95264.88;;;8.83;57.63
49451;BME280;35336;48.400;10.886;2023-01-15T00:58:04;95259.78;;;8.81;57.73
49451;BME280;35336;48.400;10.886;2023-01-15T00:58:19;95227.97;;;8.61;57.23
49451;BME280;35336;48.400;10.886;2023-01-15T00:58:34;95247.97;;;8.70;57.15
49451;BME280;35336;48.400;10.886;2023-01-15T00:58:50;95258.59;;;8.77;57.32
49451;BME280;35336;48.400;10.886;2023-01-15T00:59:05;95256.56;;;8.72;57.38
49451;BME280;35336;48.400;10.886;2023-01-15T00:59:21;95261.03;;;8.79;57.36
49451;BME280;35336;48.400;10.886;2023-01-15T00:59:36;95254.88;;;8.78;56.88
49451;BME280;35336;48.400;10.886;2023-01-15T00:59:51;95251.25;;;8.72;56.70
49451;BME280;35336;48.400;10.886;2023-01-15T01:00:07;95249.16;;;8.74;56.74
49451;BME280;35336;48.400;10.886;2023-01-15T01:00:23;95253.47;;;8.76;56.61
49451;BME280;35336;48.400;10.886;2023-01-15T01:00:38;95250.81;;;8.76;56.24
49451;BME280;35336;48.400;10.886;2023-01-15T01:00:55;95254.06;;;8.84;56.59
49451;BME280;35336;48.400;10.886;2023-01-15T01:01:11;95263.06;;;8.83;56.47
49451;BME280;35336;48.400;10.886;2023-01-15T01:01:26;95257.13;;;8.81;56.43
49451;BME280;35336;48.400;10.886;2023-01-15T01:01:41;95246.75;;;8.73;56.14
49451;BME280;35336;48.400;10.886;2023-01-15T01:01:57;95244.06;;;8.73;56.28
49451;BME280;35336;48.400;10.886;2023-01-15T01:02:13;95241.88;;;8.70;56.47
49451;BME280;35336;48.400;10.886;2023-01-15T01:02:28;95224.75;;;8.59;56.84
49451;BME280;35336;48.400;10.886;2023-01-15T01:02:43;95241.88;;;8.70;56.63
49451;BME280;35336;48.400;10.886;2023-01-15T01:02:59;95251.19;;;8.79;56.81
49451;BME280;35336;48.400;10.886;2023-01-15T01:03:14;95261.25;;;8.77;56.60
49451;BME280;35336;48.400;10.886;2023-01-15T01:03:30;95245.31;;;8.77;56.48
49451;BME280;35336;48.400;10.886;2023-01-15T01:03:45;95232.03;;;8.70;56.57
49451;BME280;35336;48.400;10.886;2023-01-15T01:04:01;95245.53;;;8.69;56.73
49451;BME280;35336;48.400;10.886;2023-01-15T01:04:16;95234.91;;;8.69;56.82
49451;BME280;35336;48.400;10.886;2023-01-15T01:04:31;95232.66;;;8.66;56.99
49451;BME280;35336;48.400;10.886;2023-01-15T01:04:47;95230.44;;;8.63;57.00
49451;BME280;35336;48.400;10.886;2023-01-15T01:05:02;95223.28;;;8.63;57.08
49451;BME280;35336;48.400;10.886;2023-01-15T01:05:18;95250.41;;;8.79;57.36
49451;BME280;35336;48.400;10.886;2023-01-15T01:05:33;95223.06;;;8.65;57.12
49451;BME280;35336;48.400;10.886;2023-01-15T01:05:49;95249.56;;;8.78;57.38
49451;BME280;35336;48.400;10.886;2023-01-15T01:06:05;95252.44;;;8.77;57.51
49451;BME280;35336;48.400;10.886;2023-01-15T01:06:21;95247.34;;;8.75;57.52
49451;BME280;35336;48.400;10.886;2023-01-15T01:06:37;95238.16;;;8.71;57.22
49451;BME280;35336;48.400;10.886;2023-01-15T01:06:52;95243.63;;;8.83;56.68
49451;BME280;35336;48.400;10.886;2023-01-15T01:07:07;95251.59;;;8.83;56.68
49451;BME280;35336;48.400;10.886;2023-01-15T01:07:23;95244.44;;;8.83;56.10
49451;BME280;35336;48.400;10.886;2023-01-15T01:07:38;95239.16;;;8.77;56.39
49451;BME280;35336;48.400;10.886;2023-01-15T01:07:53;95231.63;;;8.73;55.87
49451;BME280;35336;48.400;10.886;2023-01-15T01:08:09;95241.19;;;8.81;55.72
49451;BME280;35336;48.400;10.886;2023-01-15T01:08:24;95244.63;;;8.82;56.18
49451;BME280;35336;48.400;10.886;2023-01-15T01:08:39;95228.13;;;8.73;56.36
49451;BME280;35336;48.400;10.886;2023-01-15T01:08:55;95248.94;;;8.83;56.19
49451;BME280;35336;48.400;10.886;2023-01-15T01:09:12;95244.25;;;8.78;56.71
49451;BME280;35336;48.400;10.886;2023-01-15T01:09:27;95214.91;;;8.60;56.81
49451;BME280;35336;48.400;10.886;2023-01-15T01:09:43;95243.84;;;8.81;55.80
49451;BME280;35336;48.400;10.886;2023-01-15T01:09:58;95218.13;;;8.68;55.89
49451;BME280;35336;48.400;10.886;2023-01-15T01:10:15;95249.53;;;8.92;55.98
49451;BME280;35336;48.400;10.886;2023-01-15T01:10:31;95246.88;;;8.92;55.71
49451;BME280;35336;48.400;10.886;2023-01-15T01:10:46;95251.56;;;8.89;55.81
49451;BME280;35336;48.400;10.886;2023-01-15T01:11:09;95221.00;;;8.73;54.93
49451;BME280;35336;48.400;10.886;2023-01-15T01:11:24;95228.50;;;8.83;54.69
49451;BME280;35336;48.400;10.886;2023-01-15T01:11:40;95250.09;;;8.94;54.77
49451;BME280;35336;48.400;10.886;2023-01-15T01:11:55;95240.94;;;8.89;54.64
49451;BME280;35336;48.400;10.886;2023-01-15T01:12:11;95246.66;;;8.93;55.13
49451;BME280;35336;48.400;10.886;2023-01-15T01:12:26;95227.91;;;8.81;54.86
49451;BME280;35336;48.400;10.886;2023-01-15T01:12:41;95236.44;;;8.90;55.06
49451;BME280;35336;48.400;10.886;2023-01-15T01:12:57;95248.84;;;8.96;55.32
49451;BME280;35336;48.400;10.886;2023-01-15T01:13:12;95232.97;;;8.89;55.44
49451;BME280;35336;48.400;10.886;2023-01-15T01:13:27;95249.69;;;8.97;55.17
49451;BME280;35336;48.400;10.886;2023-01-15T01:13:44;95237.03;;;8.92;55.12
49451;BME280;35336;48.400;10.886;2023-01-15T01:14:00;95248.44;;;8.99;54.58
49451;BME280;35336;48.400;10.886;2023-01-15T01:14:16;95229.09;;;8.85;54.90
49451;BME280;35336;48.400;10.886;2023-01-15T01:14:31;95246.59;;;9.00;55.27
49451;BME280;35336;48.400;10.886;2023-01-15T01:14:47;95243.34;;;8.98;55.53
49451;BME280;35336;48.400;10.886;2023-01-15T01:15:02;95218.06;;;8.82;55.64
49451;BME280;35336;48.400;10.886;2023-01-15T01:15:19;95240.50;;;8.93;56.05
49451;BME280;35336;48.400;10.886;2023-01-15T01:15:38;95225.44;;;8.80;55.91
49451;BME280;35336;48.400;10.886;2023-01-15T01:15:53;95237.06;;;8.85;55.97
49451;BME280;35336;48.400;10.886;2023-01-15T01:16:22;95236.22;;;8.92;56.19
49451;BME280;35336;48.400;10.886;2023-01-15T01:16:39;95247.88;;;8.90;56.28
49451;BME280;35336;48.400;10.886;2023-01-15T01:16:55;95245.22;;;8.90;56.97
49451;BME280;35336;48.400;10.886;2023-01-15T01:17:10;95238.13;;;8.84;56.96
49451;BME280;35336;48.400;10.886;2023-01-15T01:17:25;95227.91;;;8.81;56.95
49451;BME280;35336;48.400;10.886;2023-01-15T01:17:41;95236.66;;;8.82;57.35
49451;BME280;35336;48.400;10.886;2023-01-15T01:17:56;95240.31;;;8.87;57.29
49451;BME280;35336;48.400;10.886;2023-01-15T01:18:12;95241.34;;;8.86;57.17
49451;BME280;35336;48.400;10.886;2023-01-15T01:18:27;95223.00;;;8.78;57.23
49451;BME280;35336;48.400;10.886;2023-01-15T01:18:43;95244.22;;;8.85;57.24
49451;BME280;35336;48.400;10.886;2023-01-15T01:18:59;95240.97;;;8.83;57.62
49451;BME280;35336;48.400;10.886;2023-01-15T01:19:20;95242.22;;;8.80;58.20
49451;BME280;35336;48.400;10.886;2023-01-15T01:19:36;95211.22;;;8.61;57.46
49451;BME280;35336;48.400;10.886;2023-01-15T01:19:51;95200.44;;;8.49;57.45
49451;BME280;35336;48.400;10.886;2023-01-15T01:20:07;95237.34;;;8.77;57.55
49451;BME280;35336;48.400;10.886;2023-01-15T01:20:22;95226.72;;;8.70;56.87
49451;BME280;35336;48.400;10.886;2023-01-15T01:20:38;95238.94;;;8.78;56.74
49451;BME280;35336;48.400;10.886;2023-01-15T01:20:53;95216.94;;;8.64;57.00
49451;BME280;35336;48.400;10.886;2023-01-15T01:21:09;95218.13;;;8.68;58.00
49451;BME280;35336;48.400;10.886;2023-01-15T01:21:25;95238.13;;;8.78;57.98
49451;BME280;35336;48.400;10.886;2023-01-15T01:21:42;95251.00;;;8.81;57.42
49451;BME280;35336;48.400;10.886;2023-01-15T01:21:57;95225.09;;;8.69;57.58
49451;BME280;35336;48.400;10.886;2023-01-15T01:22:13;95240.56;;;8.79;57.43
49451;BME280;35336;48.400;10.886;2023-01-15T01:22:28;95245.88;;;8.79;57.27
49451;BME280;35336;48.400;10.886;2023-01-15T01:22:44;95240.97;;;8.83;57.50
49451;BME280;35336;48.400;10.886;2023-01-15T01:23:02;95223.22;;;8.77;57.41
49451;BME280;35336;48.400;10.886;2023-01-15T01:23:17;95243.44;;;8.84;57.81
49451;BME280;35336;48.400;10.886;2023-01-15T01:23:33;95238.31;;;8.83;58.18
49451;BME280;35336;48.400;10.886;2023-01-15T01:23:48;95241.78;;;8.83;58.33
49451;BME280;35336;48.400;10.886;2023-01-15T01:24:05;95239.16;;;8.77;58.39
49451;BME280;35336;48.400;10.886;2023-01-15T01:24:22;95248.53;;;8.86;58.54